sensor_id;sensor_type;location;lat;lon;timestamp;temperature;humidity
10051;DHT22;5065;46.942;7.432;2023-05-13T00:00:37;14.60;99.90
10051;DHT22;5065;46.942;7.432;2023-05-13T00:03:04;14.60;99.90
10051;DHT22;5065;46.942;7.432;2023-05-13T00:05:31;14.50;99.90
10051;DHT22;5065;46.942;7.432;2023-05-13T00:07:58;14.50;99.90
10051;DHT22;5065;46.942;7.432;2023-05-13T00:10:33;14.50;99.90
10051;DHT22;5065;46.942;7.432;2023-05-13T00:13:00;14.50;99.90
10051;DHT22;5065;46.942;7.432;2023-05-13T00:15:28;14.50;99.90
10051;DHT22;5065;46.942;7.432;2023-05-13T00:17:55;14.50;99.90
10051;DHT22;5065;46.942;7.432;2023-05-13T00:20:22;14.50;99.90
10051;DHT22;5065;46.942;7.432;2023-05-13T00:22:49;14.40;99.90
10051;DHT22;5065;46.942;7.432;2023-05-13T00:25:17;14.40;99.90
10051;DHT22;5065;46.942;7.432;2023-05-13T00:27:45;14.40;99.90
10051;DHT22;5065;46.942;7.432;2023-05-13T00:30:12;14.30;99.90
10051;DHT22;5065;46.942;7.432;2023-05-13T00:32:39;14.30;99.90
10051;DHT22;5065;46.942;7.432;2023-05-13T00:35:07;14.30;99.90
10051;DHT22;5065;46.942;7.432;2023-05-13T00:37:35;14.30;99.90
10051;DHT22;5065;46.942;7.432;2023-05-13T00:40:02;14.30;99.90
10051;DHT22;5065;46.942;7.432;2023-05-13T00:42:30;14.30;99.90
10051;DHT22;5065;46.942;7.432;2023-05-13T00:44:58;14.30;99.90
10051;DHT22;5065;46.942;7.432;2023-05-13T00:47:25;14.30;99.90
10051;DHT22;5065;46.942;7.432;2023-05-13T00:49:52;14.30;99.90
10051;DHT22;5065;46.942;7.432;2023-05-13T00:52:20;14.20;99.90
10051;DHT22;5065;46.942;7.432;2023-05-13T00:54:47;14.00;99.90
10051;DHT22;5065;46.942;7.432;2023-05-13T00:57:14;14.00;99.90
10051;DHT22;5065;46.942;7.432;2023-05-13T00:59:41;14.00;99.90
10051;DHT22;5065;46.942;7.432;2023-05-13T01:02:18;13.90;99.90
10051;DHT22;5065;46.942;7.432;2023-05-13T01:05:01;13.90;99.90
10051;DHT22;5065;46.942;7.432;2023-05-13T01:07:36;13.90;99.90
10051;DHT22;5065;46.942;7.432;2023-05-13T01:10:10;13.90;99.90
10051;DHT22;5065;46.942;7.432;2023-05-13T01:12:40;13.90;99.90
10051;DHT22;5065;46.942;7.432;2023-05-13T01:15:12;13.80;99.90
10051;DHT22;5065;46.942;7.432;2023-05-13T01:17:48;13.80;99.90
10051;DHT22;5065;46.942;7.432;2023-05-13T01:20:21;13.70;99.90
10051;DHT22;5065;46.942;7.432;2023-05-13T01:22:49;13.70;99.90
10051;DHT22;5065;46.942;7.432;2023-05-13T01:25:16;13.70;99.90
10051;DHT22;5065;46.942;7.432;2023-05-13T01:27:44;13.70;99.90
10051;DHT22;5065;46.942;7.432;2023-05-13T01:30:12;13.70;99.90
10051;DHT22;5065;46.942;7.432;2023-05-13T01:32:39;13.80;99.90
10051;DHT22;5065;46.942;7.432;2023-05-13T01:35:08;13.70;99.90
10051;DHT22;5065;46.942;7.432;2023-05-13T01:37:36;13.70;99.90
10051;DHT22;5065;46.942;7.432;2023-05-13T01:40:07;13.70;99.90
10051;DHT22;5065;46.942;7.432;2023-05-13T01:42:34;13.80;99.90
10051;DHT22;5065;46.942;7.432;2023-05-13T01:45:02;13.80;99.90
10051;DHT22;5065;46.942;7.432;2023-05-13T01:47:29;13.70;99.90
10051;DHT22;5065;46.942;7.432;2023-05-13T01:49:56;13.60;99.90
10051;DHT22;5065;46.942;7.432;2023-05-13T01:52:23;13.60;99.90
10051;DHT22;5065;46.942;7.432;2023-05-13T01:54:50;13.60;99.90
10051;DHT22;5065;46.942;7.432;2023-05-13T01:57:19;13.60;99.90
10051;DHT22;5065;46.942;7.432;2023-05-13T01:59:46;13.70;99.90
10051;DHT22;5065;46.942;7.432;2023-05-13T02:02:13;13.60;99.90
10051;DHT22;5065;46.942;7.432;2023-05-13T02:04:41;13.50;99.90
10051;DHT22;5065;46.942;7.432;2023-05-13T02:07:08;13.60;99.90
10051;DHT22;5065;46.942;7.432;2023-05-13T02:09:35;13.60;99.90
10051;DHT22;5065;46.942;7.432;2023-05-13T02:12:02;13.70;99.90
10051;DHT22;5065;46.942;7.432;2023-05-13T02:14:31;13.70;99.90
10051;DHT22;5065;46.942;7.432;2023-05-13T02:16:58;13.80;99.90
10051;DHT22;5065;46.942;7.432;2023-05-13T02:19:25;13.80;99.90
10051;DHT22;5065;46.942;7.432;2023-05-13T02:21:52;13.80;99.90
10051;DHT22;5065;46.942;7.432;2023-05-13T02:24:20;13.80;99.90
10051;DHT22;5065;46.942;7.432;2023-05-13T02:26:47;13.80;99.90
10051;DHT22;5065;46.942;7.432;2023-05-13T02:29:14;13.90;99.90
10051;DHT22;5065;46.942;7.432;2023-05-13T02:31:42;13.90;99.90
10051;DHT22;5065;46.942;7.432;2023-05-13T02:34:10;13.80;99.90
10051;DHT22;5065;46.942;7.432;2023-05-13T02:36:37;13.80;99.90
10051;DHT22;5065;46.942;7.432;2023-05-13T02:39:04;13.90;99.90
10051;DHT22;5065;46.942;7.432;2023-05-13T02:41:31;13.90;99.90
10051;DHT22;5065;46.942;7.432;2023-05-13T02:43:58;13.90;99.90
10051;DHT22;5065;46.942;7.432;2023-05-13T02:46:25;14.00;99.90
10051;DHT22;5065;46.942;7.432;2023-05-13T02:48:54;14.00;99.90
10051;DHT22;5065;46.942;7.432;2023-05-13T02:51:21;14.00;99.90
10051;DHT22;5065;46.942;7.432;2023-05-13T02:53:48;14.00;99.90
10051;DHT22;5065;46.942;7.432;2023-05-13T02:56:16;14.00;99.90
10051;DHT22;5065;46.942;7.432;2023-05-13T02:58:43;14.00;99.90
10051;DHT22;5065;46.942;7.432;2023-05-13T03:01:10;14.00;99.90
10051;DHT22;5065;46.942;7.432;2023-05-13T03:03:37;14.00;99.90
10051;DHT22;5065;46.942;7.432;2023-05-13T03:06:06;14.10;99.90
10051;DHT22;5065;46.942;7.432;2023-05-13T03:08:33;14.10;99.90
10051;DHT22;5065;46.942;7.432;2023-05-13T03:11:00;14.10;99.90
10051;DHT22;5065;46.942;7.432;2023-05-13T03:13:28;14.10;99.90
10051;DHT22;5065;46.942;7.432;2023-05-13T03:15:55;14.10;99.90
10051;DHT22;5065;46.942;7.432;2023-05-13T03:18:22;14.10;99.90
10051;DHT22;5065;46.942;7.432;2023-05-13T03:20:49;14.00;99.90
10051;DHT22;5065;46.942;7.432;2023-05-13T03:23:18;14.10;99.90
10051;DHT22;5065;46.942;7.432;2023-05-13T03:25:45;14.10;99.90
10051;DHT22;5065;46.942;7.432;2023-05-13T03:28:12;14.10;99.90
10051;DHT22;5065;46.942;7.432;2023-05-13T03:30:39;14.10;99.90
10051;DHT22;5065;46.942;7.432;2023-05-13T03:33:06;14.00;99.90
10051;DHT22;5065;46.942;7.432;2023-05-13T03:35:34;14.00;99.90
10051;DHT22;5065;46.942;7.432;2023-05-13T03:38:01;14.00;99.90
10051;DHT22;5065;46.942;7.432;2023-05-13T03:40:29;13.90;99.90
10051;DHT22;5065;46.942;7.432;2023-05-13T03:42:57;13.90;99.90
10051;DHT22;5065;46.942;7.432;2023-05-13T03:45:24;13.90;99.90
10051;DHT22;5065;46.942;7.432;2023-05-13T03:47:51;13.90;99.90
10051;DHT22;5065;46.942;7.432;2023-05-13T03:50:21;14.00;99.90
10051;DHT22;5065;46.942;7.432;2023-05-13T03:52:48;13.90;99.90
10051;DHT22;5065;46.942;7.432;2023-05-13T03:55:15;13.80;99.90
10051;DHT22;5065;46.942;7.432;2023-05-13T03:57:47;13.80;99.90
10051;DHT22;5065;46.942;7.432;2023-05-13T04:00:14;13.90;99.90
10051;DHT22;5065;46.942;7.432;2023-05-13T04:02:42;13.90;99.90
10051;DHT22;5065;46.942;7.432;2023-05-13T04:05:09;13.90;99.90
10051;DHT22;5065;46.942;7.432;2023-05-13T04:07:38;13.90;99.90
10051;DHT22;5065;46.942;7.432;2023-05-13T04:10:06;14.00;99.90
10051;DHT22;5065;46.942;7.432;2023-05-13T04:12:33;13.90;99.90
10051;DHT22;5065;46.942;7.432;2023-05-13T04:15:02;13.70;99.90
10051;DHT22;5065;46.942;7.432;2023-05-13T04:17:29;13.70;99.90
10051;DHT22;5065;46.942;7.432;2023-05-13T04:19:58;13.60;99.90
10051;DHT22;5065;46.942;7.432;2023-05-13T04:22:25;13.60;99.90
10051;DHT22;5065;46.942;7.432;2023-05-13T04:24:52;13.70;99.90
10051;DHT22;5065;46.942;7.432;2023-05-13T04:27:21;13.70;99.90
10051;DHT22;5065;46.942;7.432;2023-05-13T04:29:49;13.70;99.90
10051;DHT22;5065;46.942;7.432;2023-05-13T04:32:17;13.70;99.90
10051;DHT22;5065;46.942;7.432;2023-05-13T04:34:46;13.70;99.90
10051;DHT22;5065;46.942;7.432;2023-05-13T04:37:13;13.70;99.90
10051;DHT22;5065;46.942;7.432;2023-05-13T04:39:41;13.70;99.90
10051;DHT22;5065;46.942;7.432;2023-05-13T04:42:08;13.70;99.90
10051;DHT22;5065;46.942;7.432;2023-05-13T04:44:36;13.70;99.90
10051;DHT22;5065;46.942;7.432;2023-05-13T04:47:03;13.70;99.90
10051;DHT22;5065;46.942;7.432;2023-05-13T04:49:31;13.70;99.90
10051;DHT22;5065;46.942;7.432;2023-05-13T04:52:00;13.70;99.90
10051;DHT22;5065;46.942;7.432;2023-05-13T04:54:27;13.80;99.90
10051;DHT22;5065;46.942;7.432;2023-05-13T04:56:55;13.80;99.90
10051;DHT22;5065;46.942;7.432;2023-05-13T04:59:22;13.70;99.90
10051;DHT22;5065;46.942;7.432;2023-05-13T05:01:49;13.80;99.90
10051;DHT22;5065;46.942;7.432;2023-05-13T05:04:16;13.80;99.90
10051;DHT22;5065;46.942;7.432;2023-05-13T05:06:44;13.80;99.90
10051;DHT22;5065;46.942;7.432;2023-05-13T05:09:12;13.90;99.90
10051;DHT22;5065;46.942;7.432;2023-05-13T05:11:39;13.90;99.90
10051;DHT22;5065;46.942;7.432;2023-05-13T05:14:06;13.90;99.90
10051;DHT22;5065;46.942;7.432;2023-05-13T05:16:33;13.90;99.90
10051;DHT22;5065;46.942;7.432;2023-05-13T05:19:00;13.90;99.90
10051;DHT22;5065;46.942;7.432;2023-05-13T05:21:27;13.90;99.90
10051;DHT22;5065;46.942;7.432;2023-05-13T05:23:56;13.90;99.90
10051;DHT22;5065;46.942;7.432;2023-05-13T05:26:24;13.90;99.90
10051;DHT22;5065;46.942;7.432;2023-05-13T05:28:51;14.00;99.90
10051;DHT22;5065;46.942;7.432;2023-05-13T05:31:18;14.00;99.90
10051;DHT22;5065;46.942;7.432;2023-05-13T05:33:45;14.00;99.90
10051;DHT22;5065;46.942;7.432;2023-05-13T05:36:13;14.10;99.90
10051;DHT22;5065;46.942;7.432;2023-05-13T05:38:40;14.10;99.90
10051;DHT22;5065;46.942;7.432;2023-05-13T05:41:08;14.10;99.90
10051;DHT22;5065;46.942;7.432;2023-05-13T05:43:36;14.10;99.90
10051;DHT22;5065;46.942;7.432;2023-05-13T05:46:03;14.10;99.90
10051;DHT22;5065;46.942;7.432;2023-05-13T05:48:30;14.10;99.90
10051;DHT22;5065;46.942;7.432;2023-05-13T05:50:57;14.10;99.90
10051;DHT22;5065;46.942;7.432;2023-05-13T05:53:24;14.10;99.90
10051;DHT22;5065;46.942;7.432;2023-05-13T05:55:51;14.10;99.90
10051;DHT22;5065;46.942;7.432;2023-05-13T05:58:20;14.10;99.90
10051;DHT22;5065;46.942;7.432;2023-05-13T06:00:47;14.00;99.90
10051;DHT22;5065;46.942;7.432;2023-05-13T06:03:14;14.10;99.90
10051;DHT22;5065;46.942;7.432;2023-05-13T06:05:41;14.10;99.90
10051;DHT22;5065;46.942;7.432;2023-05-13T06:08:08;14.10;99.90
10051;DHT22;5065;46.942;7.432;2023-05-13T06:10:36;14.10;99.90
10051;DHT22;5065;46.942;7.432;2023-05-13T06:13:03;14.20;99.90
10051;DHT22;5065;46.942;7.432;2023-05-13T06:15:31;14.20;99.90
10051;DHT22;5065;46.942;7.432;2023-05-13T06:17:58;14.20;99.90
10051;DHT22;5065;46.942;7.432;2023-05-13T06:20:29;14.20;99.90
10051;DHT22;5065;46.942;7.432;2023-05-13T06:22:56;14.10;99.90
10051;DHT22;5065;46.942;7.432;2023-05-13T06:25:23;14.10;99.90
10051;DHT22;5065;46.942;7.432;2023-05-13T06:27:50;14.10;99.90
10051;DHT22;5065;46.942;7.432;2023-05-13T06:30:17;14.00;99.90
10051;DHT22;5065;46.942;7.432;2023-05-13T06:32:46;14.00;99.90
10051;DHT22;5065;46.942;7.432;2023-05-13T06:35:13;14.10;99.90
10051;DHT22;5065;46.942;7.432;2023-05-13T06:37:40;14.00;99.90
10051;DHT22;5065;46.942;7.432;2023-05-13T06:40:08;14.00;99.90
10051;DHT22;5065;46.942;7.432;2023-05-13T06:42:35;14.00;99.90
10051;DHT22;5065;46.942;7.432;2023-05-13T06:45:06;14.00;99.90
10051;DHT22;5065;46.942;7.432;2023-05-13T06:47:33;14.00;99.90
10051;DHT22;5065;46.942;7.432;2023-05-13T06:50:03;14.00;99.90
10051;DHT22;5065;46.942;7.432;2023-05-13T06:52:30;14.00;99.90
10051;DHT22;5065;46.942;7.432;2023-05-13T06:54:57;14.10;99.90
10051;DHT22;5065;46.942;7.432;2023-05-13T06:57:25;14.10;99.90
10051;DHT22;5065;46.942;7.432;2023-05-13T06:59:52;14.10;99.90
10051;DHT22;5065;46.942;7.432;2023-05-13T07:02:19;14.10;99.90
10051;DHT22;5065;46.942;7.432;2023-05-13T07:04:46;14.20;99.90
10051;DHT22;5065;46.942;7.432;2023-05-13T07:07:14;14.30;99.90
10051;DHT22;5065;46.942;7.432;2023-05-13T07:09:41;14.30;99.90
10051;DHT22;5065;46.942;7.432;2023-05-13T07:12:09;14.30;99.90
10051;DHT22;5065;46.942;7.432;2023-05-13T07:14:36;14.30;99.90
10051;DHT22;5065;46.942;7.432;2023-05-13T07:17:03;14.40;99.90
10051;DHT22;5065;46.942;7.432;2023-05-13T07:19:30;14.40;99.90
10051;DHT22;5065;46.942;7.432;2023-05-13T07:21:58;14.40;99.90
10051;DHT22;5065;46.942;7.432;2023-05-13T07:24:26;14.40;99.90
10051;DHT22;5065;46.942;7.432;2023-05-13T07:26:53;14.40;99.90
10051;DHT22;5065;46.942;7.432;2023-05-13T07:29:20;14.50;99.90
10051;DHT22;5065;46.942;7.432;2023-05-13T07:31:47;14.50;99.90
10051;DHT22;5065;46.942;7.432;2023-05-13T07:34:15;14.50;99.90
10051;DHT22;5065;46.942;7.432;2023-05-13T07:36:42;14.50;99.90
10051;DHT22;5065;46.942;7.432;2023-05-13T07:39:09;14.50;99.90
10051;DHT22;5065;46.942;7.432;2023-05-13T07:41:37;14.50;99.90
10051;DHT22;5065;46.942;7.432;2023-05-13T07:44:05;14.50;99.90
10051;DHT22;5065;46.942;7.432;2023-05-13T07:46:36;14.50;99.90
10051;DHT22;5065;46.942;7.432;2023-05-13T07:49:03;14.50;99.90
10051;DHT22;5065;46.942;7.432;2023-05-13T07:51:33;14.50;99.90
10051;DHT22;5065;46.942;7.432;2023-05-13T07:54:00;14.50;99.90
10051;DHT22;5065;46.942;7.432;2023-05-13T07:56:27;14.50;99.90
10051;DHT22;5065;46.942;7.432;2023-05-13T07:58:56;14.50;99.90
10051;DHT22;5065;46.942;7.432;2023-05-13T08:01:24;14.50;99.90
10051;DHT22;5065;46.942;7.432;2023-05-13T08:03:51;14.50;99.90
10051;DHT22;5065;46.942;7.432;2023-05-13T08:06:18;14.60;99.90
10051;DHT22;5065;46.942;7.432;2023-05-13T08:08:45;14.60;99.90
10051;DHT22;5065;46.942;7.432;2023-05-13T08:11:12;14.60;99.90
10051;DHT22;5065;46.942;7.432;2023-05-13T08:13:39;14.60;99.90
10051;DHT22;5065;46.942;7.432;2023-05-13T08:16:08;14.60;99.90
10051;DHT22;5065;46.942;7.432;2023-05-13T08:18:35;14.50;99.90
10051;DHT22;5065;46.942;7.432;2023-05-13T08:21:02;14.50;99.90
10051;DHT22;5065;46.942;7.432;2023-05-13T08:23:29;14.50;99.90
10051;DHT22;5065;46.942;7.432;2023-05-13T08:25:56;14.50;99.90
10051;DHT22;5065;46.942;7.432;2023-05-13T08:28:23;14.50;99.90
10051;DHT22;5065;46.942;7.432;2023-05-13T08:30:52;14.60;99.90
10051;DHT22;5065;46.942;7.432;2023-05-13T08:33:20;14.50;99.90
10051;DHT22;5065;46.942;7.432;2023-05-13T08:35:47;14.60;99.90
10051;DHT22;5065;46.942;7.432;2023-05-13T08:38:14;14.50;99.90
10051;DHT22;5065;46.942;7.432;2023-05-13T08:40:41;14.50;99.90
10051;DHT22;5065;46.942;7.432;2023-05-13T08:43:10;14.50;99.90
10051;DHT22;5065;46.942;7.432;2023-05-13T08:45:41;14.50;99.90
10051;DHT22;5065;46.942;7.432;2023-05-13T08:48:12;14.50;99.90
10051;DHT22;5065;46.942;7.432;2023-05-13T08:50:42;14.50;99.90
10051;DHT22;5065;46.942;7.432;2023-05-13T08:53:11;14.50;99.90
10051;DHT22;5065;46.942;7.432;2023-05-13T08:55:38;14.60;99.90
10051;DHT22;5065;46.942;7.432;2023-05-13T08:58:06;14.60;99.90
10051;DHT22;5065;46.942;7.432;2023-05-13T09:00:34;14.50;99.90
10051;DHT22;5065;46.942;7.432;2023-05-13T09:03:01;14.60;99.90
10051;DHT22;5065;46.942;7.432;2023-05-13T09:05:28;14.60;99.90
10051;DHT22;5065;46.942;7.432;2023-05-13T09:07:59;14.50;99.90
10051;DHT22;5065;46.942;7.432;2023-05-13T09:10:31;14.50;99.90
10051;DHT22;5065;46.942;7.432;2023-05-13T09:12:58;14.50;99.90
10051;DHT22;5065;46.942;7.432;2023-05-13T09:15:27;14.60;99.90
10051;DHT22;5065;46.942;7.432;2023-05-13T09:17:58;14.60;99.90
10051;DHT22;5065;46.942;7.432;2023-05-13T09:20:25;14.70;99.90
10051;DHT22;5065;46.942;7.432;2023-05-13T09:22:54;14.70;99.90
10051;DHT22;5065;46.942;7.432;2023-05-13T09:25:24;14.70;99.90
10051;DHT22;5065;46.942;7.432;2023-05-13T09:27:52;14.70;99.90
10051;DHT22;5065;46.942;7.432;2023-05-13T09:30:22;14.80;99.90
10051;DHT22;5065;46.942;7.432;2023-05-13T09:33:07;14.90;99.90
10051;DHT22;5065;46.942;7.432;2023-05-13T09:35:35;14.90;99.90
10051;DHT22;5065;46.942;7.432;2023-05-13T09:38:12;15.00;99.90
10051;DHT22;5065;46.942;7.432;2023-05-13T09:40:41;15.10;99.90
10051;DHT22;5065;46.942;7.432;2023-05-13T09:43:15;15.10;99.90
10051;DHT22;5065;46.942;7.432;2023-05-13T09:45:42;15.20;99.90
10051;DHT22;5065;46.942;7.432;2023-05-13T09:48:09;15.30;99.90
10051;DHT22;5065;46.942;7.432;2023-05-13T09:50:46;15.30;99.90
10051;DHT22;5065;46.942;7.432;2023-05-13T09:53:14;15.20;99.90
10051;DHT22;5065;46.942;7.432;2023-05-13T09:55:45;15.30;99.90
10051;DHT22;5065;46.942;7.432;2023-05-13T09:58:12;15.40;99.90
10051;DHT22;5065;46.942;7.432;2023-05-13T10:00:41;15.50;99.90
10051;DHT22;5065;46.942;7.432;2023-05-13T10:03:09;15.60;99.90
10051;DHT22;5065;46.942;7.432;2023-05-13T10:05:37;15.60;99.90
10051;DHT22;5065;46.942;7.432;2023-05-13T10:08:08;15.60;99.90
10051;DHT22;5065;46.942;7.432;2023-05-13T10:10:36;15.70;99.90
10051;DHT22;5065;46.942;7.432;2023-05-13T10:13:07;15.70;99.90
10051;DHT22;5065;46.942;7.432;2023-05-13T10:15:35;15.70;99.90
10051;DHT22;5065;46.942;7.432;2023-05-13T10:18:09;15.70;99.90
10051;DHT22;5065;46.942;7.432;2023-05-13T10:20:36;15.90;99.90
10051;DHT22;5065;46.942;7.432;2023-05-13T10:23:04;15.90;99.90
10051;DHT22;5065;46.942;7.432;2023-05-13T10:25:31;16.10;99.90
10051;DHT22;5065;46.942;7.432;2023-05-13T10:27:59;16.20;99.90
10051;DHT22;5065;46.942;7.432;2023-05-13T10:30:29;16.30;99.90
10051;DHT22;5065;46.942;7.432;2023-05-13T10:32:57;16.50;99.90
10051;DHT22;5065;46.942;7.432;2023-05-13T10:35:31;16.60;99.90
10051;DHT22;5065;46.942;7.432;2023-05-13T10:38:03;16.70;99.90
10051;DHT22;5065;46.942;7.432;2023-05-13T10:40:58;16.80;99.90
10051;DHT22;5065;46.942;7.432;2023-05-13T10:43:28;16.90;99.90
10051;DHT22;5065;46.942;7.432;2023-05-13T10:46:00;17.00;99.90
10051;DHT22;5065;46.942;7.432;2023-05-13T10:48:37;17.10;99.90
10051;DHT22;5065;46.942;7.432;2023-05-13T10:51:08;17.10;99.90
10051;DHT22;5065;46.942;7.432;2023-05-13T10:53:42;17.10;99.90
10051;DHT22;5065;46.942;7.432;2023-05-13T10:56:09;17.30;99.90
10051;DHT22;5065;46.942;7.432;2023-05-13T10:58:37;17.40;99.90
10051;DHT22;5065;46.942;7.432;2023-05-13T11:01:17;17.50;99.90
10051;DHT22;5065;46.942;7.432;2023-05-13T11:03:51;17.60;99.90
10051;DHT22;5065;46.942;7.432;2023-05-13T11:06:20;17.70;99.90
10051;DHT22;5065;46.942;7.432;2023-05-13T11:08:49;17.80;99.90
10051;DHT22;5065;46.942;7.432;2023-05-13T11:11:22;17.90;99.90
10051;DHT22;5065;46.942;7.432;2023-05-13T11:13:51;18.00;99.90
10051;DHT22;5065;46.942;7.432;2023-05-13T11:16:21;18.10;99.90
10051;DHT22;5065;46.942;7.432;2023-05-13T11:18:49;18.10;99.90
10051;DHT22;5065;46.942;7.432;2023-05-13T11:21:17;18.20;99.90
10051;DHT22;5065;46.942;7.432;2023-05-13T11:23:56;18.20;99.90
10051;DHT22;5065;46.942;7.432;2023-05-13T11:26:24;18.30;99.90
10051;DHT22;5065;46.942;7.432;2023-05-13T11:29:04;18.30;99.90
10051;DHT22;5065;46.942;7.432;2023-05-13T11:31:50;18.30;99.90
10051;DHT22;5065;46.942;7.432;2023-05-13T11:34:21;18.30;99.90
10051;DHT22;5065;46.942;7.432;2023-05-13T11:36:49;18.30;99.90
10051;DHT22;5065;46.942;7.432;2023-05-13T11:39:17;18.30;99.90
10051;DHT22;5065;46.942;7.432;2023-05-13T11:41:46;18.20;99.90
10051;DHT22;5065;46.942;7.432;2023-05-13T11:44:15;18.20;99.90
10051;DHT22;5065;46.942;7.432;2023-05-13T11:46:51;18.10;99.90
10051;DHT22;5065;46.942;7.432;2023-05-13T11:49:34;18.10;99.90
10051;DHT22;5065;46.942;7.432;2023-05-13T11:52:03;18.10;99.90
10051;DHT22;5065;46.942;7.432;2023-05-13T11:54:31;18.10;99.90
10051;DHT22;5065;46.942;7.432;2023-05-13T11:56:58;18.10;99.90
10051;DHT22;5065;46.942;7.432;2023-05-13T11:59:25;18.10;99.90
10051;DHT22;5065;46.942;7.432;2023-05-13T12:02:00;18.00;99.90
10051;DHT22;5065;46.942;7.432;2023-05-13T12:04:28;18.00;99.90
10051;DHT22;5065;46.942;7.432;2023-05-13T12:06:56;18.00;99.90
10051;DHT22;5065;46.942;7.432;2023-05-13T12:09:24;17.90;99.90
10051;DHT22;5065;46.942;7.432;2023-05-13T12:11:51;17.90;99.90
10051;DHT22;5065;46.942;7.432;2023-05-13T12:14:19;17.90;99.90
10051;DHT22;5065;46.942;7.432;2023-05-13T12:16:47;17.80;99.90
10051;DHT22;5065;46.942;7.432;2023-05-13T12:19:15;17.80;99.90
10051;DHT22;5065;46.942;7.432;2023-05-13T12:21:42;17.80;99.90
10051;DHT22;5065;46.942;7.432;2023-05-13T12:24:17;17.80;99.90
10051;DHT22;5065;46.942;7.432;2023-05-13T12:26:44;17.80;99.90
10051;DHT22;5065;46.942;7.432;2023-05-13T12:29:11;17.70;99.90
10051;DHT22;5065;46.942;7.432;2023-05-13T12:31:41;17.70;99.90
10051;DHT22;5065;46.942;7.432;2023-05-13T12:34:08;17.60;99.90
10051;DHT22;5065;46.942;7.432;2023-05-13T12:36:38;17.50;99.90
10051;DHT22;5065;46.942;7.432;2023-05-13T12:39:06;17.40;99.90
10051;DHT22;5065;46.942;7.432;2023-05-13T12:41:35;17.40;99.90
10051;DHT22;5065;46.942;7.432;2023-05-13T12:44:06;17.50;99.90
10051;DHT22;5065;46.942;7.432;2023-05-13T12:46:33;17.40;99.90
10051;DHT22;5065;46.942;7.432;2023-05-13T12:49:02;17.40;99.90
10051;DHT22;5065;46.942;7.432;2023-05-13T12:51:30;17.40;99.90
10051;DHT22;5065;46.942;7.432;2023-05-13T12:53:58;17.20;99.90
10051;DHT22;5065;46.942;7.432;2023-05-13T12:56:26;17.20;99.90
10051;DHT22;5065;46.942;7.432;2023-05-13T12:58:53;17.30;99.90
10051;DHT22;5065;46.942;7.432;2023-05-13T13:01:21;17.30;99.90
10051;DHT22;5065;46.942;7.432;2023-05-13T13:03:48;17.30;99.90
10051;DHT22;5065;46.942;7.432;2023-05-13T13:06:16;17.30;99.90
10051;DHT22;5065;46.942;7.432;2023-05-13T13:08:43;17.30;99.90
10051;DHT22;5065;46.942;7.432;2023-05-13T13:11:11;17.30;99.90
10051;DHT22;5065;46.942;7.432;2023-05-13T13:13:43;17.40;99.90
10051;DHT22;5065;46.942;7.432;2023-05-13T13:16:11;17.40;99.90
10051;DHT22;5065;46.942;7.432;2023-05-13T13:18:38;17.50;99.90
10051;DHT22;5065;46.942;7.432;2023-05-13T13:21:06;17.50;99.90
10051;DHT22;5065;46.942;7.432;2023-05-13T13:23:33;17.50;99.90
10051;DHT22;5065;46.942;7.432;2023-05-13T13:26:00;17.40;99.90
10051;DHT22;5065;46.942;7.432;2023-05-13T13:28:29;17.40;99.90
10051;DHT22;5065;46.942;7.432;2023-05-13T13:30:56;17.50;99.90
10051;DHT22;5065;46.942;7.432;2023-05-13T13:33:24;17.50;99.90
10051;DHT22;5065;46.942;7.432;2023-05-13T13:35:51;17.50;99.90
10051;DHT22;5065;46.942;7.432;2023-05-13T13:38:18;17.50;99.90
10051;DHT22;5065;46.942;7.432;2023-05-13T13:40:45;17.60;99.90
10051;DHT22;5065;46.942;7.432;2023-05-13T13:43:12;17.60;99.90
10051;DHT22;5065;46.942;7.432;2023-05-13T13:45:41;17.60;99.90
10051;DHT22;5065;46.942;7.432;2023-05-13T13:48:08;17.50;99.90
10051;DHT22;5065;46.942;7.432;2023-05-13T13:50:35;17.50;99.90
10051;DHT22;5065;46.942;7.432;2023-05-13T13:53:02;17.50;99.90
10051;DHT22;5065;46.942;7.432;2023-05-13T13:55:29;17.50;99.90
10051;DHT22;5065;46.942;7.432;2023-05-13T13:57:56;17.60;99.90
10051;DHT22;5065;46.942;7.432;2023-05-13T14:00:23;17.60;99.90
10051;DHT22;5065;46.942;7.432;2023-05-13T14:02:53;17.60;99.90
10051;DHT22;5065;46.942;7.432;2023-05-13T14:05:21;17.50;99.90
10051;DHT22;5065;46.942;7.432;2023-05-13T14:07:48;17.50;99.90
10051;DHT22;5065;46.942;7.432;2023-05-13T14:10:18;17.50;99.90
10051;DHT22;5065;46.942;7.432;2023-05-13T14:12:45;17.50;99.90
10051;DHT22;5065;46.942;7.432;2023-05-13T14:15:13;17.50;99.90
10051;DHT22;5065;46.942;7.432;2023-05-13T14:17:40;17.60;99.90
10051;DHT22;5065;46.942;7.432;2023-05-13T14:20:11;17.60;99.90
10051;DHT22;5065;46.942;7.432;2023-05-13T14:22:38;17.60;99.90
10051;DHT22;5065;46.942;7.432;2023-05-13T14:25:05;17.50;99.90
10051;DHT22;5065;46.942;7.432;2023-05-13T14:27:34;17.60;99.90
10051;DHT22;5065;46.942;7.432;2023-05-13T14:30:02;17.60;99.90
10051;DHT22;5065;46.942;7.432;2023-05-13T14:32:29;17.50;99.90
10051;DHT22;5065;46.942;7.432;2023-05-13T14:34:56;17.50;99.90
10051;DHT22;5065;46.942;7.432;2023-05-13T14:37:24;17.40;99.90
10051;DHT22;5065;46.942;7.432;2023-05-13T14:39:52;17.40;99.90
10051;DHT22;5065;46.942;7.432;2023-05-13T14:42:19;17.40;99.90
10051;DHT22;5065;46.942;7.432;2023-05-13T14:44:46;17.40;99.90
10051;DHT22;5065;46.942;7.432;2023-05-13T14:47:13;17.50;99.90
10051;DHT22;5065;46.942;7.432;2023-05-13T14:49:40;17.50;99.90
10051;DHT22;5065;46.942;7.432;2023-05-13T14:52:08;17.50;99.90
10051;DHT22;5065;46.942;7.432;2023-05-13T14:54:37;17.50;99.90
10051;DHT22;5065;46.942;7.432;2023-05-13T14:57:05;17.40;99.90
10051;DHT22;5065;46.942;7.432;2023-05-13T14:59:32;17.40;99.90
10051;DHT22;5065;46.942;7.432;2023-05-13T15:02:00;17.30;99.90
10051;DHT22;5065;46.942;7.432;2023-05-13T15:04:27;17.20;99.90
10051;DHT22;5065;46.942;7.432;2023-05-13T15:06:54;17.00;99.90
10051;DHT22;5065;46.942;7.432;2023-05-13T15:09:22;17.00;99.90
10051;DHT22;5065;46.942;7.432;2023-05-13T15:11:50;17.00;99.90
10051;DHT22;5065;46.942;7.432;2023-05-13T15:14:17;17.00;99.90
10051;DHT22;5065;46.942;7.432;2023-05-13T15:16:46;17.00;99.90
10051;DHT22;5065;46.942;7.432;2023-05-13T15:19:13;17.00;99.90
10051;DHT22;5065;46.942;7.432;2023-05-13T15:21:40;17.00;99.90
10051;DHT22;5065;46.942;7.432;2023-05-13T15:24:07;17.00;99.90
10051;DHT22;5065;46.942;7.432;2023-05-13T15:26:34;16.90;99.90
10051;DHT22;5065;46.942;7.432;2023-05-13T15:29:03;17.00;99.90
10051;DHT22;5065;46.942;7.432;2023-05-13T15:31:30;16.80;99.90
10051;DHT22;5065;46.942;7.432;2023-05-13T15:33:57;16.80;99.90
10051;DHT22;5065;46.942;7.432;2023-05-13T15:36:25;16.80;99.90
10051;DHT22;5065;46.942;7.432;2023-05-13T15:38:52;16.80;99.90
10051;DHT22;5065;46.942;7.432;2023-05-13T15:41:19;16.70;99.90
10051;DHT22;5065;46.942;7.432;2023-05-13T15:43:46;16.60;99.90
10051;DHT22;5065;46.942;7.432;2023-05-13T15:46:14;16.60;99.90
10051;DHT22;5065;46.942;7.432;2023-05-13T15:48:41;16.60;99.90
10051;DHT22;5065;46.942;7.432;2023-05-13T15:51:08;16.60;99.90